createdAt,value
2023-09-17T00:03:49.312Z,100
2023-09-17T00:08:50.850Z,100
2023-09-17T00:13:52.810Z,100
2023-09-17T00:18:54.169Z,100
2023-09-17T00:23:55.458Z,100
2023-09-17T00:28:56.929Z,100
2023-09-17T00:33:59.076Z,100
2023-09-17T00:39:00.587Z,100
2023-09-17T00:44:02.332Z,100
2023-09-17T00:49:04.294Z,100
2023-09-17T00:54:06.102Z,100
2023-09-17T00:54:12.459Z,100
2023-09-17T00:59:14.573Z,100
2023-09-17T01:04:16.349Z,100
2023-09-17T01:09:18.399Z,100
2023-09-17T01:14:20.521Z,100
2023-09-17T01:19:22.337Z,100
2023-09-17T01:44:30.843Z,100
2023-09-17T02:14:40.417Z,100
2023-09-17T02:24:43.271Z,100
2023-09-17T02:54:53.396Z,100
2023-09-17T03:15:00.614Z,100
2023-09-17T03:25:05.043Z,100
2023-09-17T03:35:07.401Z,100
2023-09-17T03:45:11.028Z,100
2023-09-17T04:25:25.321Z,100
2023-09-17T04:30:27.158Z,100
2023-09-17T04:35:29.048Z,100
2023-09-17T04:40:30.855Z,100
2023-09-17T04:45:32.055Z,100
2023-09-17T04:50:34.062Z,100
2023-09-17T04:55:36.108Z,100
2023-09-17T05:00:37.803Z,100
2023-09-17T05:05:39.321Z,100
2023-09-17T05:10:40.488Z,100
2023-09-17T05:15:41.896Z,100
2023-09-17T05:20:43.660Z,100
2023-09-17T05:25:45.351Z,100
2023-09-17T05:30:47.215Z,100
2023-09-17T05:35:48.880Z,100
2023-09-17T05:40:50.132Z,100
2023-09-17T05:45:51.610Z,100
2023-09-17T05:50:54.210Z,100
2023-09-17T05:55:55.413Z,100
2023-09-17T06:00:56.849Z,100
2023-09-17T06:05:58.674Z,100
2023-09-17T06:11:00.034Z,100
2023-09-17T06:16:01.880Z,100
2023-09-17T06:21:03.078Z,100
2023-09-17T06:26:04.340Z,100
2023-09-17T06:31:06.388Z,100
2023-09-17T06:36:07.795Z,100
2023-09-17T06:41:09.095Z,100
2023-09-17T06:46:10.759Z,100
2023-09-17T06:51:12.503Z,100
2023-09-17T06:56:14.297Z,100
2023-09-17T07:01:15.772Z,100
2023-09-17T07:06:17.305Z,100
2023-09-17T07:11:18.975Z,100
2023-09-17T07:16:20.356Z,100
2023-09-17T07:21:21.984Z,100
2023-09-17T07:26:23.507Z,100
2023-09-17T07:31:25.626Z,100
2023-09-17T07:36:27.071Z,100
2023-09-17T07:41:29.218Z,100
2023-09-17T07:46:31.174Z,100
2023-09-17T07:51:32.506Z,100
2023-09-17T07:56:34.112Z,100
2023-09-17T08:01:35.817Z,100
2023-09-17T08:06:37.706Z,100
2023-09-17T08:11:39.452Z,100
2023-09-17T08:16:40.741Z,100
2023-09-17T08:21:41.967Z,100
2023-09-17T08:26:44.028Z,100
2023-09-17T08:31:45.599Z,100
2023-09-17T08:36:47.030Z,100
2023-09-17T08:41:49.118Z,100
2023-09-17T08:46:50.471Z,100
2023-09-17T08:51:52.308Z,100
2023-09-17T08:56:53.813Z,100
2023-09-17T09:01:55.564Z,100
2023-09-17T09:06:57.224Z,100
2023-09-17T09:11:59.323Z,100
2023-09-17T09:17:01.480Z,100
2023-09-17T09:22:02.728Z,100
2023-09-17T09:27:04.784Z,100
2023-09-17T09:32:06.474Z,100
2023-09-17T09:37:08.139Z,100
2023-09-17T09:42:09.778Z,100
2023-09-17T09:47:11.313Z,100
2023-09-17T09:52:13.399Z,100
2023-09-17T09:57:15.537Z,100
2023-09-17T10:02:17.445Z,100
2023-09-17T10:07:18.617Z,100
2023-09-17T10:12:20.667Z,100
2023-09-17T10:17:21.922Z,100
2023-09-17T10:22:23.376Z,100
2023-09-17T10:27:24.713Z,100
2023-09-17T10:32:25.915Z,100
2023-09-17T10:37:27.296Z,100
2023-09-17T10:42:29.432Z,100
2023-09-17T10:47:30.987Z,100
2023-09-17T10:52:32.838Z,100
2023-09-17T10:57:34.647Z,100
2023-09-17T11:02:36.186Z,100
2023-09-17T11:07:38.003Z,100
2023-09-17T11:12:39.957Z,100
2023-09-17T11:17:41.938Z,100
2023-09-17T11:22:43.301Z,100
2023-09-17T11:27:44.874Z,100
2023-09-17T11:32:46.306Z,100
2023-09-17T11:37:50.407Z,100
2023-09-17T11:42:49.845Z,100
2023-09-17T11:47:51.599Z,100
2023-09-17T11:52:53.492Z,100
2023-09-17T11:57:54.794Z,100
2023-09-17T12:02:56.923Z,100
2023-09-17T12:07:58.313Z,100
2023-09-17T12:12:59.644Z,100
2023-09-17T12:18:01.359Z,100
2023-09-17T12:23:03.505Z,100
2023-09-17T12:28:05.093Z,100
2023-09-17T12:33:07.254Z,100
2023-09-17T12:38:08.900Z,89
2023-09-17T12:43:10.353Z,88
2023-09-17T12:48:12.157Z,82
2023-09-17T12:53:13.802Z,76
2023-09-17T12:58:15.665Z,74
2023-09-17T13:03:17.632Z,64
2023-09-17T13:08:19.042Z,58
2023-09-17T13:13:20.699Z,62
2023-09-17T13:18:22.852Z,59
2023-09-17T13:23:24.340Z,59
2023-09-17T13:28:26.206Z,58
2023-09-17T13:33:27.974Z,58
2023-09-17T13:38:29.891Z,55
2023-09-17T13:43:31.856Z,61
2023-09-17T13:48:33.078Z,60
2023-09-17T13:53:34.733Z,57
2023-09-17T13:58:36.433Z,60
2023-09-17T14:03:38.102Z,60
2023-09-17T14:08:39.630Z,61
2023-09-17T14:13:41.675Z,61
2023-09-17T14:18:43.396Z,58
2023-09-17T14:23:45.590Z,60
2023-09-17T14:28:47.079Z,57
2023-09-17T14:33:48.474Z,55
2023-09-17T14:38:50.846Z,53
2023-09-17T14:43:52.260Z,55
2023-09-17T14:48:54.523Z,55
2023-09-17T14:53:55.649Z,55
2023-09-17T14:58:57.656Z,53
2023-09-17T15:03:59.861Z,57
2023-09-17T15:09:01.735Z,51
2023-09-17T15:14:03.242Z,50
2023-09-17T15:19:04.806Z,48
2023-09-17T15:24:06.782Z,47
2023-09-17T15:29:08.806Z,46
2023-09-17T15:34:10.957Z,46
2023-09-17T15:39:12.423Z,45
2023-09-17T15:44:16.084Z,45
2023-09-17T15:49:15.399Z,44
2023-09-17T15:54:17.373Z,45
2023-09-17T15:59:18.677Z,47
2023-09-17T16:04:20.570Z,48
2023-09-17T16:39:32.715Z,95
2023-09-17T17:50:01.975Z,100
2023-09-17T17:55:03.545Z,100
2023-09-17T18:00:05.032Z,100
2023-09-17T18:45:20.653Z,100
2023-09-17T18:50:22.566Z,100
2023-09-17T18:55:24.192Z,100
2023-09-17T19:00:25.704Z,100
2023-09-17T19:05:27.899Z,100
2023-09-17T19:10:29.929Z,100
2023-09-17T19:15:31.470Z,100
2023-09-17T19:20:42.527Z,100
2023-09-17T19:25:34.942Z,100
2023-09-17T19:30:36.767Z,100
2023-09-17T19:35:38.033Z,100
2023-09-17T19:40:39.773Z,100
2023-09-17T19:45:41.705Z,100
2023-09-17T19:50:43.256Z,100
2023-09-17T19:55:44.650Z,100
2023-09-17T20:00:45.952Z,100
2023-09-17T20:05:47.762Z,100
2023-09-17T20:10:49.615Z,100
2023-09-17T20:15:51.248Z,100
2023-09-17T20:20:53.354Z,100
2023-09-17T20:25:55.501Z,100
2023-09-17T20:30:56.987Z,100
2023-09-17T20:35:58.953Z,100
2023-09-17T20:41:00.762Z,100
2023-09-17T20:46:02.496Z,100
2023-09-17T20:51:05.321Z,100
2023-09-17T20:56:05.893Z,100
2023-09-17T21:01:07.289Z,100
2023-09-17T21:06:08.702Z,100
2023-09-17T21:11:10.048Z,100
2023-09-17T21:16:11.922Z,100
2023-09-17T21:21:12.880Z,100
2023-09-17T21:26:14.229Z,100
2023-09-17T21:31:15.656Z,100
2023-09-17T21:36:17.389Z,100
2023-09-17T21:41:19.286Z,100
2023-09-17T21:46:20.780Z,100
2023-09-17T21:51:22.819Z,100
2023-09-17T21:56:24.840Z,100
2023-09-17T22:01:26.233Z,100
2023-09-17T22:06:27.484Z,100
2023-09-17T22:11:28.901Z,100
2023-09-17T22:16:30.543Z,100
2023-09-17T22:21:32.324Z,100
2023-09-17T22:26:33.822Z,100
2023-09-17T22:31:35.935Z,100
2023-09-17T22:36:37.544Z,100
2023-09-17T22:41:39.405Z,100
2023-09-17T22:46:41.443Z,100
2023-09-17T22:51:43.148Z,100
2023-09-17T22:56:44.999Z,100
2023-09-17T23:01:46.654Z,100
2023-09-17T23:06:48.172Z,100
2023-09-17T23:11:49.811Z,100
2023-09-17T23:16:51.876Z,100
2023-09-17T23:21:53.704Z,100
2023-09-17T23:26:54.968Z,100
2023-09-17T23:31:57.052Z,100
2023-09-17T23:36:59.206Z,100
2023-09-17T23:42:00.689Z,100
2023-09-17T23:47:02.206Z,100
2023-09-17T23:52:04.021Z,100
2023-09-17T23:57:05.674Z,100
